VOZ876 YSSY-YMML
Flight info
| Callsign | VOZ876 |
|---|---|
| Flight time | 1h 10m |
| Altitude | 38000 |
| Route | WOL H65 LEECE Q29 BOOIN |
| Aircraft | B38M/M-SDE1FGHILORVWXY/HB1 |
Departure
| Time | 2026-05-04 12:27 |
|---|---|
| Airport | Sydney Kingsford Smith International Airport (YSSY) |
Arrival
| Time | 2026-05-04 13:38 |
|---|---|
| Airport | Melbourne Airport (YMML) |
| Time | Latitude | Longitude | Altitude | Speed | Heading |
|---|---|---|---|---|---|
| 2026-05-04 11:35 | -33.93576 | 151.17900 | 32 ft | 0 kts | 101° |
| 2026-05-04 12:09 | -33.93575 | 151.17893 | 33 ft | 2 kts | 101° |
| 2026-05-04 12:09 | -33.93572 | 151.17874 | 33 ft | 2 kts | 100° |
| 2026-05-04 12:09 | -33.93569 | 151.17854 | 33 ft | 2 kts | 100° |
| 2026-05-04 12:10 | -33.93563 | 151.17836 | 33 ft | 2 kts | 146° |
| 2026-05-04 12:10 | -33.93548 | 151.17833 | 33 ft | 2 kts | 187° |
| 2026-05-04 12:10 | -33.93543 | 151.17834 | 32 ft | 0 kts | 189° |
| 2026-05-04 12:17 | -33.93548 | 151.17833 | 32 ft | 4 kts | 189° |
| 2026-05-04 12:17 | -33.93624 | 151.17816 | 32 ft | 16 kts | 192° |
| 2026-05-04 12:17 | -33.93743 | 151.17782 | 32 ft | 19 kts | 194° |
| 2026-05-04 12:18 | -33.93876 | 151.17772 | 32 ft | 20 kts | 168° |
| 2026-05-04 12:18 | -33.94021 | 151.17810 | 31 ft | 21 kts | 168° |
| 2026-05-04 12:18 | -33.94168 | 151.17848 | 32 ft | 22 kts | 167° |
| 2026-05-04 12:18 | -33.94325 | 151.17889 | 32 ft | 24 kts | 168° |
| 2026-05-04 12:19 | -33.94464 | 151.17899 | 32 ft | 17 kts | 203° |
| 2026-05-04 12:19 | -33.94588 | 151.17899 | 32 ft | 19 kts | 168° |
| 2026-05-04 12:19 | -33.94725 | 151.17934 | 32 ft | 21 kts | 168° |
| 2026-05-04 12:19 | -33.94869 | 151.17971 | 32 ft | 20 kts | 167° |
| 2026-05-04 12:20 | -33.95010 | 151.18008 | 33 ft | 16 kts | 168° |
| 2026-05-04 12:20 | -33.95095 | 151.18062 | 33 ft | 15 kts | 113° |
| 2026-05-04 12:20 | -33.95084 | 151.18189 | 33 ft | 17 kts | 78° |
| 2026-05-04 12:20 | -33.95059 | 151.18333 | 33 ft | 19 kts | 78° |
| 2026-05-04 12:21 | -33.95045 | 151.18413 | 33 ft | 0 kts | 78° |
| 2026-05-04 12:21 | -33.95042 | 151.18431 | 33 ft | 7 kts | 80° |
| 2026-05-04 12:22 | -33.95080 | 151.18509 | 33 ft | 14 kts | 144° |
| 2026-05-04 12:22 | -33.95160 | 151.18594 | 33 ft | 16 kts | 140° |
| 2026-05-04 12:22 | -33.95255 | 151.18687 | 32 ft | 19 kts | 150° |
| 2026-05-04 12:22 | -33.95386 | 151.18737 | 32 ft | 21 kts | 167° |
| 2026-05-04 12:23 | -33.95534 | 151.18774 | 32 ft | 23 kts | 168° |
| 2026-05-04 12:23 | -33.95695 | 151.18817 | 32 ft | 25 kts | 168° |
| 2026-05-04 12:23 | -33.95842 | 151.18855 | 32 ft | 21 kts | 168° |
| 2026-05-04 12:23 | -33.95992 | 151.18893 | 33 ft | 23 kts | 167° |
| 2026-05-04 12:24 | -33.96143 | 151.18933 | 32 ft | 21 kts | 168° |
| 2026-05-04 12:24 | -33.96295 | 151.18972 | 33 ft | 23 kts | 167° |
| 2026-05-04 12:24 | -33.96449 | 151.19013 | 32 ft | 20 kts | 168° |
| 2026-05-04 12:24 | -33.96592 | 151.19050 | 32 ft | 22 kts | 168° |
| 2026-05-04 12:25 | -33.96738 | 151.19072 | 32 ft | 22 kts | 189° |
| 2026-05-04 12:25 | -33.96894 | 151.19081 | 33 ft | 24 kts | 171° |
| 2026-05-04 12:25 | -33.97042 | 151.19123 | 33 ft | 20 kts | 167° |
| 2026-05-04 12:25 | -33.97123 | 151.19205 | 32 ft | 16 kts | 90° |
| 2026-05-04 12:26 | -33.97115 | 151.19258 | 31 ft | 0 kts | 78° |
| 2026-05-04 12:26 | -33.97113 | 151.19273 | 31 ft | 7 kts | 78° |
| 2026-05-04 12:26 | -33.97087 | 151.19367 | 28 ft | 5 kts | 37° |
| 2026-05-04 12:26 | -33.97009 | 151.19364 | 27 ft | 19 kts | 343° |
| 2026-05-04 12:27 | -33.96604 | 151.19254 | 28 ft | 100 kts | 348° |
| 2026-05-04 12:27 | -33.95697 | 151.19020 | 96 ft | 156 kts | 345° |
| 2026-05-04 12:27 | -33.94586 | 151.18719 | 810 ft | 170 kts | 351° |
| 2026-05-04 12:27 | -33.93421 | 151.18974 | 1632 ft | 185 kts | 25° |
| 2026-05-04 12:28 | -33.92537 | 151.20244 | 2196 ft | 217 kts | 66° |
| 2026-05-04 12:28 | -33.92403 | 151.22048 | 3143 ft | 214 kts | 102° |
| 2026-05-04 12:28 | -33.93033 | 151.23665 | 3783 ft | 215 kts | 121° |
| 2026-05-04 12:28 | -33.93705 | 151.25314 | 3997 ft | 227 kts | 102° |
| 2026-05-04 12:29 | -33.93794 | 151.27252 | 4029 ft | 239 kts | 85° |
| 2026-05-04 12:29 | -33.93747 | 151.29329 | 4211 ft | 257 kts | 86° |
| 2026-05-04 12:29 | -33.93691 | 151.31564 | 4294 ft | 275 kts | 86° |
| 2026-05-04 12:29 | -33.93625 | 151.33886 | 4360 ft | 284 kts | 84° |
| 2026-05-04 12:30 | -33.93552 | 151.36292 | 4544 ft | 291 kts | 85° |
| 2026-05-04 12:30 | -33.93476 | 151.38715 | 5569 ft | 289 kts | 84° |
| 2026-05-04 12:30 | -33.93397 | 151.41158 | 6535 ft | 295 kts | 84° |
| 2026-05-04 12:30 | -33.93315 | 151.43632 | 7499 ft | 297 kts | 84° |
| 2026-05-04 12:31 | -33.93233 | 151.46127 | 8424 ft | 301 kts | 84° |
| 2026-05-04 12:31 | -33.93167 | 151.48660 | 9377 ft | 306 kts | 88° |
| 2026-05-04 12:31 | -33.93575 | 151.51207 | 10250 ft | 318 kts | 110° |
| 2026-05-04 12:31 | -33.94883 | 151.53439 | 10733 ft | 340 kts | 139° |
| 2026-05-04 12:32 | -33.96862 | 151.55132 | 11178 ft | 356 kts | 145° |
| 2026-05-04 12:32 | -34.01460 | 151.57397 | 12499 ft | 365 kts | 180° |
| 2026-05-04 12:32 | -34.03937 | 151.57005 | 13239 ft | 358 kts | 205° |
| 2026-05-04 12:33 | -34.06074 | 151.55544 | 13909 ft | 353 kts | 225° |
| 2026-05-04 12:33 | -34.07697 | 151.53380 | 14549 ft | 346 kts | 240° |
| 2026-05-04 12:33 | -34.09151 | 151.51031 | 15176 ft | 352 kts | 238° |
| 2026-05-04 12:33 | -34.10658 | 151.48685 | 15844 ft | 355 kts | 238° |
| 2026-05-04 12:34 | -34.12192 | 151.46321 | 16476 ft | 359 kts | 238° |
| 2026-05-04 12:34 | -34.13724 | 151.43973 | 17095 ft | 362 kts | 238° |
| 2026-05-04 12:34 | -34.15290 | 151.41580 | 17708 ft | 365 kts | 238° |
| 2026-05-04 12:34 | -34.16876 | 151.39157 | 18317 ft | 369 kts | 238° |
| 2026-05-04 12:35 | -34.18466 | 151.36724 | 18820 ft | 372 kts | 238° |
| 2026-05-04 12:35 | -34.20082 | 151.34254 | 19326 ft | 375 kts | 238° |
| 2026-05-04 12:35 | -34.21704 | 151.31772 | 19868 ft | 377 kts | 239° |
| 2026-05-04 12:35 | -34.23335 | 151.29273 | 20396 ft | 379 kts | 239° |
| 2026-05-04 12:36 | -34.24974 | 151.26760 | 20907 ft | 381 kts | 239° |
| 2026-05-04 12:36 | -34.26618 | 151.24236 | 21436 ft | 383 kts | 239° |
| 2026-05-04 12:36 | -34.28254 | 151.21724 | 21945 ft | 386 kts | 239° |
| 2026-05-04 12:36 | -34.29921 | 151.19162 | 22478 ft | 388 kts | 239° |
| 2026-05-04 12:37 | -34.31596 | 151.16583 | 23010 ft | 391 kts | 239° |
| 2026-05-04 12:37 | -34.33277 | 151.13995 | 23531 ft | 393 kts | 239° |
| 2026-05-04 12:37 | -34.34972 | 151.11381 | 24006 ft | 396 kts | 239° |
| 2026-05-04 12:37 | -34.36683 | 151.08743 | 24458 ft | 398 kts | 239° |
| 2026-05-04 12:38 | -34.38400 | 151.06090 | 24912 ft | 401 kts | 239° |
| 2026-05-04 12:38 | -34.40100 | 151.03462 | 25378 ft | 403 kts | 240° |
| 2026-05-04 12:38 | -34.41837 | 151.00776 | 25859 ft | 404 kts | 240° |
| 2026-05-04 12:38 | -34.43574 | 150.98087 | 26323 ft | 406 kts | 240° |
| 2026-05-04 12:39 | -34.45322 | 150.95377 | 26739 ft | 409 kts | 240° |
| 2026-05-04 12:39 | -34.47078 | 150.92653 | 27162 ft | 411 kts | 240° |
| 2026-05-04 12:39 | -34.48839 | 150.89919 | 27578 ft | 413 kts | 240° |
| 2026-05-04 12:39 | -34.50612 | 150.87163 | 27999 ft | 416 kts | 240° |
| 2026-05-04 12:40 | -34.52400 | 150.84384 | 28378 ft | 419 kts | 240° |
| 2026-05-04 12:40 | -34.54195 | 150.81589 | 28781 ft | 421 kts | 240° |
| 2026-05-04 12:40 | -34.55954 | 150.78787 | 29146 ft | 422 kts | 242° |
| 2026-05-04 12:40 | -34.57686 | 150.75899 | 29515 ft | 424 kts | 242° |
| 2026-05-04 12:41 | -34.59434 | 150.72995 | 29927 ft | 426 kts | 242° |
| 2026-05-04 12:41 | -34.61188 | 150.70088 | 30305 ft | 427 kts | 242° |
| 2026-05-04 12:41 | -34.62953 | 150.67163 | 30602 ft | 430 kts | 242° |
| 2026-05-04 12:41 | -34.64724 | 150.64225 | 30942 ft | 431 kts | 242° |
| 2026-05-04 12:42 | -34.66498 | 150.61280 | 31283 ft | 433 kts | 242° |
| 2026-05-04 12:42 | -34.68278 | 150.58321 | 31619 ft | 434 kts | 242° |
| 2026-05-04 12:42 | -34.70039 | 150.55394 | 31944 ft | 435 kts | 242° |
| 2026-05-04 12:42 | -34.71828 | 150.52415 | 32278 ft | 437 kts | 242° |
| 2026-05-04 12:43 | -34.73617 | 150.49436 | 32710 ft | 435 kts | 242° |
| 2026-05-04 12:43 | -34.75393 | 150.46476 | 33163 ft | 433 kts | 242° |
| 2026-05-04 12:43 | -34.77165 | 150.43519 | 33612 ft | 431 kts | 242° |
| 2026-05-04 12:43 | -34.78930 | 150.40571 | 33992 ft | 430 kts | 242° |
| 2026-05-04 12:44 | -34.80685 | 150.37638 | 34380 ft | 428 kts | 242° |
| 2026-05-04 12:44 | -34.82438 | 150.34704 | 34724 ft | 428 kts | 242° |
| 2026-05-04 12:44 | -34.84192 | 150.31769 | 35012 ft | 428 kts | 242° |
| 2026-05-04 12:44 | -34.85941 | 150.28840 | 35342 ft | 426 kts | 242° |
| 2026-05-04 12:45 | -34.87659 | 150.25958 | 35666 ft | 426 kts | 242° |
| 2026-05-04 12:45 | -34.89400 | 150.23035 | 35940 ft | 426 kts | 242° |
| 2026-05-04 12:45 | -34.91140 | 150.20112 | 36255 ft | 424 kts | 242° |
| 2026-05-04 12:45 | -34.92874 | 150.17197 | 36526 ft | 424 kts | 242° |
| 2026-05-04 12:46 | -34.94604 | 150.14287 | 36776 ft | 424 kts | 242° |
| 2026-05-04 12:46 | -34.96330 | 150.11382 | 37038 ft | 424 kts | 242° |
| 2026-05-04 12:46 | -34.98060 | 150.08466 | 37304 ft | 424 kts | 242° |
| 2026-05-04 12:46 | -34.99767 | 150.05587 | 37498 ft | 424 kts | 242° |
| 2026-05-04 12:47 | -35.01497 | 150.02667 | 37755 ft | 424 kts | 242° |
| 2026-05-04 12:47 | -35.03223 | 149.99753 | 37962 ft | 424 kts | 242° |
| 2026-05-04 12:47 | -35.04950 | 149.96833 | 38118 ft | 425 kts | 242° |
| 2026-05-04 12:48 | -35.08432 | 149.90929 | 38098 ft | 429 kts | 242° |
| 2026-05-04 12:48 | -35.11918 | 149.85011 | 38135 ft | 429 kts | 242° |
| 2026-05-04 12:49 | -35.15411 | 149.79071 | 38109 ft | 430 kts | 242° |
| 2026-05-04 12:49 | -35.18878 | 149.73166 | 38108 ft | 430 kts | 242° |
| 2026-05-04 12:50 | -35.22365 | 149.67216 | 38110 ft | 430 kts | 242° |
| 2026-05-04 12:50 | -35.25849 | 149.61261 | 38106 ft | 430 kts | 242° |
| 2026-05-04 12:51 | -35.29334 | 149.55295 | 38117 ft | 430 kts | 242° |
| 2026-05-04 12:51 | -35.32812 | 149.49329 | 38112 ft | 430 kts | 242° |
| 2026-05-04 12:52 | -35.36267 | 149.43394 | 38106 ft | 430 kts | 242° |
| 2026-05-04 12:52 | -35.39737 | 149.37423 | 38104 ft | 430 kts | 242° |
| 2026-05-04 12:53 | -35.43216 | 149.31426 | 38124 ft | 430 kts | 242° |
| 2026-05-04 12:53 | -35.46682 | 149.25440 | 38110 ft | 430 kts | 242° |
| 2026-05-04 12:54 | -35.50133 | 149.19472 | 38138 ft | 431 kts | 242° |
| 2026-05-04 12:54 | -35.53595 | 149.13474 | 38105 ft | 430 kts | 242° |
| 2026-05-04 12:55 | -35.57057 | 149.07465 | 38144 ft | 431 kts | 242° |
| 2026-05-04 12:55 | -35.59934 | 149.02465 | 38109 ft | 431 kts | 242° |
| 2026-05-04 12:56 | -35.63959 | 148.95455 | 38135 ft | 432 kts | 242° |
| 2026-05-04 12:56 | -35.66836 | 148.90437 | 38085 ft | 430 kts | 242° |
| 2026-05-04 12:57 | -35.70288 | 148.84405 | 38114 ft | 432 kts | 242° |
| 2026-05-04 12:57 | -35.74304 | 148.77375 | 38105 ft | 431 kts | 243° |
| 2026-05-04 12:58 | -35.77198 | 148.72301 | 38105 ft | 431 kts | 242° |
| 2026-05-04 12:58 | -35.80634 | 148.66267 | 38100 ft | 431 kts | 242° |
| 2026-05-04 12:59 | -35.84054 | 148.60252 | 38087 ft | 431 kts | 242° |
| 2026-05-04 12:59 | -35.87499 | 148.54181 | 38105 ft | 432 kts | 242° |
| 2026-05-04 13:00 | -35.90924 | 148.48106 | 38091 ft | 431 kts | 242° |
| 2026-05-04 13:00 | -35.94354 | 148.42017 | 38086 ft | 434 kts | 242° |
| 2026-05-04 13:01 | -35.97795 | 148.35898 | 38111 ft | 434 kts | 242° |
| 2026-05-04 13:01 | -36.01208 | 148.29817 | 38109 ft | 433 kts | 242° |
| 2026-05-04 13:02 | -36.04637 | 148.23696 | 38107 ft | 433 kts | 242° |
| 2026-05-04 13:02 | -36.08076 | 148.17547 | 38097 ft | 435 kts | 242° |
| 2026-05-04 13:03 | -36.11523 | 148.11378 | 38107 ft | 437 kts | 242° |
| 2026-05-04 13:03 | -36.14980 | 148.05195 | 38101 ft | 437 kts | 242° |
| 2026-05-04 13:04 | -36.18433 | 147.99014 | 38097 ft | 437 kts | 242° |
| 2026-05-04 13:04 | -36.21868 | 147.92854 | 38101 ft | 437 kts | 242° |
| 2026-05-04 13:05 | -36.25308 | 147.86675 | 38091 ft | 434 kts | 242° |
| 2026-05-04 13:05 | -36.28733 | 147.80510 | 38096 ft | 434 kts | 242° |
| 2026-05-04 13:06 | -36.32158 | 147.74335 | 38099 ft | 434 kts | 242° |
| 2026-05-04 13:06 | -36.35556 | 147.68183 | 38090 ft | 435 kts | 242° |
| 2026-05-04 13:07 | -36.38973 | 147.61987 | 38089 ft | 434 kts | 242° |
| 2026-05-04 13:07 | -36.42373 | 147.55807 | 38087 ft | 433 kts | 242° |
| 2026-05-04 13:08 | -36.45746 | 147.49667 | 38084 ft | 433 kts | 242° |
| 2026-05-04 13:08 | -36.49138 | 147.43482 | 38074 ft | 433 kts | 242° |
| 2026-05-04 13:09 | -36.52524 | 147.37297 | 38080 ft | 433 kts | 242° |
| 2026-05-04 13:09 | -36.55911 | 147.31098 | 38072 ft | 432 kts | 242° |
| 2026-05-04 13:10 | -36.59272 | 147.24936 | 38072 ft | 433 kts | 242° |
| 2026-05-04 13:10 | -36.62658 | 147.18716 | 38060 ft | 433 kts | 242° |
| 2026-05-04 13:11 | -36.66029 | 147.12512 | 38069 ft | 433 kts | 242° |
| 2026-05-04 13:11 | -36.69412 | 147.06278 | 38070 ft | 434 kts | 242° |
| 2026-05-04 13:12 | -36.72771 | 147.00070 | 38074 ft | 435 kts | 242° |
| 2026-05-04 13:12 | -36.76151 | 146.93817 | 38057 ft | 434 kts | 242° |
| 2026-05-04 13:12 | -36.77830 | 146.90704 | 37608 ft | 431 kts | 243° |
| 2026-05-04 13:13 | -36.79499 | 146.87607 | 36911 ft | 430 kts | 243° |
| 2026-05-04 13:13 | -36.81166 | 146.84512 | 36299 ft | 429 kts | 243° |
| 2026-05-04 13:13 | -36.82826 | 146.81428 | 35715 ft | 428 kts | 243° |
| 2026-05-04 13:13 | -36.84482 | 146.78346 | 35147 ft | 426 kts | 243° |
| 2026-05-04 13:14 | -36.86130 | 146.75279 | 34567 ft | 424 kts | 243° |
| 2026-05-04 13:14 | -36.87774 | 146.72215 | 34011 ft | 423 kts | 244° |
| 2026-05-04 13:14 | -36.89386 | 146.69209 | 33382 ft | 421 kts | 244° |
| 2026-05-04 13:14 | -36.91009 | 146.66179 | 32792 ft | 418 kts | 244° |
| 2026-05-04 13:15 | -36.92621 | 146.63168 | 32268 ft | 415 kts | 244° |
| 2026-05-04 13:15 | -36.94214 | 146.60189 | 31764 ft | 412 kts | 244° |
| 2026-05-04 13:15 | -36.95807 | 146.57208 | 31225 ft | 410 kts | 244° |
| 2026-05-04 13:15 | -36.97386 | 146.54249 | 30687 ft | 409 kts | 245° |
| 2026-05-04 13:16 | -36.98961 | 146.51297 | 30149 ft | 407 kts | 245° |
| 2026-05-04 13:16 | -37.00534 | 146.48346 | 29526 ft | 406 kts | 244° |
| 2026-05-04 13:16 | -37.02097 | 146.45411 | 28970 ft | 403 kts | 244° |
| 2026-05-04 13:16 | -37.03625 | 146.42539 | 28463 ft | 399 kts | 244° |
| 2026-05-04 13:17 | -37.05156 | 146.39659 | 27952 ft | 396 kts | 243° |
| 2026-05-04 13:17 | -37.06675 | 146.36800 | 27466 ft | 394 kts | 242° |
| 2026-05-04 13:17 | -37.08189 | 146.33945 | 26873 ft | 394 kts | 242° |
| 2026-05-04 13:17 | -37.09705 | 146.31087 | 26318 ft | 393 kts | 241° |
| 2026-05-04 13:18 | -37.11210 | 146.28243 | 25854 ft | 389 kts | 241° |
| 2026-05-04 13:18 | -37.12700 | 146.25427 | 25372 ft | 387 kts | 241° |
| 2026-05-04 13:18 | -37.14184 | 146.22621 | 24885 ft | 385 kts | 240° |
| 2026-05-04 13:18 | -37.15662 | 146.19824 | 24397 ft | 383 kts | 240° |
| 2026-05-04 13:19 | -37.17131 | 146.17041 | 23922 ft | 382 kts | 239° |
| 2026-05-04 13:19 | -37.18575 | 146.14303 | 23415 ft | 380 kts | 240° |
| 2026-05-04 13:19 | -37.20030 | 146.11539 | 22872 ft | 378 kts | 240° |
| 2026-05-04 13:19 | -37.21471 | 146.08804 | 22400 ft | 375 kts | 240° |
| 2026-05-04 13:20 | -37.22900 | 146.06087 | 21944 ft | 371 kts | 239° |
| 2026-05-04 13:20 | -37.24315 | 146.03397 | 21522 ft | 367 kts | 239° |
| 2026-05-04 13:20 | -37.25714 | 146.00734 | 21068 ft | 364 kts | 239° |
| 2026-05-04 13:20 | -37.27105 | 145.98081 | 20644 ft | 361 kts | 239° |
| 2026-05-04 13:21 | -37.28468 | 145.95484 | 20217 ft | 359 kts | 239° |
| 2026-05-04 13:21 | -37.29831 | 145.92883 | 19807 ft | 356 kts | 239° |
| 2026-05-04 13:21 | -37.31195 | 145.90285 | 19321 ft | 356 kts | 239° |
| 2026-05-04 13:21 | -37.32556 | 145.87696 | 18918 ft | 353 kts | 240° |
| 2026-05-04 13:22 | -37.33907 | 145.85124 | 18522 ft | 351 kts | 239° |
| 2026-05-04 13:22 | -37.35247 | 145.82569 | 18092 ft | 349 kts | 240° |
| 2026-05-04 13:22 | -37.36577 | 145.80031 | 17664 ft | 346 kts | 240° |
| 2026-05-04 13:22 | -37.37894 | 145.77517 | 17253 ft | 343 kts | 239° |
| 2026-05-04 13:23 | -37.39182 | 145.75056 | 16870 ft | 339 kts | 240° |
| 2026-05-04 13:23 | -37.40473 | 145.72591 | 16481 ft | 336 kts | 240° |
| 2026-05-04 13:23 | -37.41751 | 145.70144 | 16109 ft | 333 kts | 240° |
| 2026-05-04 13:23 | -37.43018 | 145.67715 | 15733 ft | 330 kts | 240° |
| 2026-05-04 13:24 | -37.44270 | 145.65317 | 15350 ft | 327 kts | 240° |
| 2026-05-04 13:24 | -37.45569 | 145.62975 | 14942 ft | 326 kts | 237° |
| 2026-05-04 13:24 | -37.46912 | 145.60684 | 14565 ft | 324 kts | 237° |
| 2026-05-04 13:25 | -37.49551 | 145.56140 | 13864 ft | 319 kts | 237° |
| 2026-05-04 13:25 | -37.50837 | 145.53919 | 13473 ft | 317 kts | 237° |
| 2026-05-04 13:25 | -37.52126 | 145.51687 | 13085 ft | 314 kts | 237° |
| 2026-05-04 13:25 | -37.53408 | 145.49466 | 12708 ft | 311 kts | 237° |
| 2026-05-04 13:26 | -37.54675 | 145.47270 | 12371 ft | 308 kts | 237° |
| 2026-05-04 13:26 | -37.55931 | 145.45100 | 12002 ft | 305 kts | 237° |
| 2026-05-04 13:26 | -37.57179 | 145.42943 | 11604 ft | 304 kts | 237° |
| 2026-05-04 13:26 | -37.58418 | 145.40803 | 11265 ft | 301 kts | 237° |
| 2026-05-04 13:27 | -37.59647 | 145.38679 | 10972 ft | 296 kts | 237° |
| 2026-05-04 13:27 | -37.60847 | 145.36604 | 10799 ft | 288 kts | 237° |
| 2026-05-04 13:27 | -37.61992 | 145.34627 | 10680 ft | 279 kts | 237° |
| 2026-05-04 13:27 | -37.63117 | 145.32676 | 10528 ft | 272 kts | 237° |
| 2026-05-04 13:28 | -37.64221 | 145.30763 | 10397 ft | 268 kts | 237° |
| 2026-05-04 13:28 | -37.65318 | 145.28861 | 10273 ft | 268 kts | 238° |
| 2026-05-04 13:28 | -37.66417 | 145.26954 | 10123 ft | 268 kts | 238° |
| 2026-05-04 13:28 | -37.67509 | 145.25059 | 9972 ft | 267 kts | 237° |
| 2026-05-04 13:29 | -37.68609 | 145.23148 | 9525 ft | 272 kts | 237° |
| 2026-05-04 13:29 | -37.69732 | 145.21198 | 9014 ft | 277 kts | 237° |
| 2026-05-04 13:29 | -37.70872 | 145.19216 | 8538 ft | 279 kts | 237° |
| 2026-05-04 13:29 | -37.71996 | 145.17262 | 8150 ft | 269 kts | 237° |
| 2026-05-04 13:30 | -37.73060 | 145.15412 | 7840 ft | 258 kts | 237° |
| 2026-05-04 13:30 | -37.74100 | 145.13601 | 7528 ft | 254 kts | 237° |
| 2026-05-04 13:30 | -37.75136 | 145.11795 | 7220 ft | 253 kts | 237° |
| 2026-05-04 13:30 | -37.76168 | 145.09995 | 6891 ft | 252 kts | 237° |
| 2026-05-04 13:31 | -37.77193 | 145.08208 | 6556 ft | 250 kts | 237° |
| 2026-05-04 13:31 | -37.78207 | 145.06436 | 6204 ft | 249 kts | 237° |
| 2026-05-04 13:31 | -37.79218 | 145.04670 | 5881 ft | 247 kts | 237° |
| 2026-05-04 13:31 | -37.80210 | 145.02938 | 5558 ft | 239 kts | 237° |
| 2026-05-04 13:32 | -37.81124 | 145.01266 | 5273 ft | 228 kts | 245° |
| 2026-05-04 13:32 | -37.81562 | 144.99398 | 4924 ft | 218 kts | 257° |
| 2026-05-04 13:32 | -37.81902 | 144.97570 | 4650 ft | 209 kts | 257° |
| 2026-05-04 13:32 | -37.82226 | 144.95819 | 4400 ft | 201 kts | 257° |
| 2026-05-04 13:33 | -37.82512 | 144.94140 | 4244 ft | 189 kts | 261° |
| 2026-05-04 13:33 | -37.82720 | 144.92531 | 3983 ft | 183 kts | 261° |
| 2026-05-04 13:33 | -37.82920 | 144.90977 | 3695 ft | 174 kts | 261° |
| 2026-05-04 13:33 | -37.83109 | 144.89510 | 3453 ft | 163 kts | 262° |
| 2026-05-04 13:34 | -37.83027 | 144.88116 | 3190 ft | 162 kts | 289° |
| 2026-05-04 13:34 | -37.82305 | 144.86998 | 2978 ft | 171 kts | 318° |
| 2026-05-04 13:34 | -37.81145 | 144.86468 | 2838 ft | 185 kts | 341° |
| 2026-05-04 13:34 | -37.79883 | 144.86224 | 2646 ft | 186 kts | 341° |
| 2026-05-04 13:35 | -37.78592 | 144.85978 | 2381 ft | 185 kts | 342° |
| 2026-05-04 13:35 | -37.76180 | 144.85530 | 1897 ft | 159 kts | 342° |
| 2026-05-04 13:35 | -37.75104 | 144.85329 | 1628 ft | 152 kts | 341° |
| 2026-05-04 13:36 | -37.74093 | 144.85133 | 1433 ft | 144 kts | 343° |
| 2026-05-04 13:36 | -37.73119 | 144.84942 | 1231 ft | 140 kts | 348° |
| 2026-05-04 13:36 | -37.72148 | 144.84764 | 1039 ft | 142 kts | 348° |
| 2026-05-04 13:36 | -37.71171 | 144.84581 | 855 ft | 140 kts | 349° |
| 2026-05-04 13:37 | -37.70223 | 144.84411 | 701 ft | 136 kts | 349° |
| 2026-05-04 13:37 | -37.69295 | 144.84232 | 539 ft | 135 kts | 349° |
| 2026-05-04 13:37 | -37.68364 | 144.84055 | 363 ft | 133 kts | 349° |
| 2026-05-04 13:37 | -37.67816 | 144.83955 | 361 ft | 99 kts | 352° |
| 2026-05-04 13:38 | -37.67262 | 144.83856 | 379 ft | 38 kts | 351° |
| 2026-05-04 13:38 | -37.67040 | 144.83838 | 387 ft | 22 kts | 7° |
| 2026-05-04 13:38 | -37.66900 | 144.83885 | 392 ft | 20 kts | 18° |
| 2026-05-04 13:38 | -37.66808 | 144.83930 | 394 ft | 11 kts | 21° |
| 2026-05-04 13:39 | -37.66745 | 144.83976 | 392 ft | 12 kts | 45° |
| 2026-05-04 13:39 | -37.66721 | 144.84102 | 392 ft | 16 kts | 104° |
| 2026-05-04 13:39 | -37.66791 | 144.84190 | 391 ft | 15 kts | 161° |
| 2026-05-04 13:39 | -37.66901 | 144.84214 | 391 ft | 16 kts | 173° |
| 2026-05-04 13:40 | -37.67009 | 144.84234 | 388 ft | 12 kts | 165° |
| 2026-05-04 13:40 | -37.67058 | 144.84315 | 388 ft | 10 kts | 85° |
| 2026-05-04 13:40 | -37.67049 | 144.84408 | 390 ft | 10 kts | 75° |
| 2026-05-04 13:40 | -37.67019 | 144.84485 | 391 ft | 8 kts | 77° |
| 2026-05-04 13:41 | -37.67014 | 144.84555 | 392 ft | 8 kts | 85° |
| 2026-05-04 13:41 | -37.67014 | 144.84613 | 393 ft | 5 kts | 132° |
| 2026-05-04 13:41 | -37.67043 | 144.84619 | 393 ft | 2 kts | 172° |
| 2026-05-04 13:42 | -37.67069 | 144.84624 | 392 ft | 0 kts | 172° |